Dades meteomassalio
Diari Summary for Marc 7, 2018 Units:  English    Metric   Both
« Previous Day
Next Day »
Diari Semanal Mensual Anual Personalitzat
  Maxima: Minima: Mijana:
Temperatura: TemperatureC °F 1.7 °F 7.7 °F
Rosada: DewpointC °F -4.4 °F 0.7 °F
Humitat: Humidity % 39 % 63 %
Velocitat del vent: WindSpeedKMH mph 0.0 mph 15.3 mph
Racha vent: WindSpeedGustKMH mph - -
Vent:- - West
Pressio: PressurehPa in 1003.9 in -
Pluja: 0.0 in    
Historical Graphs
 
 
Tabular Data for Marc 7, 2018
Time Temperature Dew Point Pressure Wind Wind Speed Wind Gust Humidity Rainfall Rate (Hourly) solar Conditions
TemperatureC °F DewpointC °F PressurehPa in Calm     Humidity % HourlyPrecipMM in SolarRadiationWatts/m^2 W/m2 Conditions
00:03 1.7 °F -4.4 °F 1003.9 in WNW 22.2 mph 22.2 mph 64 % 0.0 in 0.0 W/m2 CLR
00:08 1.7 °F -4.4 °F 1003.9 in WNW 22.5 mph 22.5 mph 64 % 0.0 in 0.0 W/m2 CLR
00:13 3.3 °F -2.8 °F 1003.9 in WNW 20.4 mph 20.4 mph 64 % 0.0 in 0.0 W/m2 CLR
00:18 4.4 °F -2.0 °F 1003.9 in West 20.4 mph 20.4 mph 63 % 0.0 in 0.0 W/m2 CLR
00:23 4.4 °F -1.8 °F 1003.9 in NW 14.8 mph 14.8 mph 64 % 0.0 in 0.0 W/m2 CLR
00:28 4.4 °F -1.8 °F 1003.9 in NW 18.5 mph 18.5 mph 64 % 0.0 in 0.0 W/m2 CLR
00:33 4.4 °F -2.0 °F 1004.3 in NW 16.7 mph 16.7 mph 63 % 0.0 in 0.0 W/m2 CLR
00:39 3.9 °F -2.3 °F 1004.3 in West 16.7 mph 16.7 mph 64 % 0.0 in 0.0 W/m2 CLR
00:44 3.9 °F -2.3 °F 1004.3 in WNW 20.4 mph 20.4 mph 64 % 0.0 in 0.0 W/m2 CLR
00:49 3.3 °F -2.6 °F 1004.3 in NW 14.8 mph 14.8 mph 65 % 0.0 in 0.0 W/m2 CLR
00:54 3.9 °F -1.9 °F 1004.3 in NW 16.7 mph 16.7 mph 66 % 0.0 in 0.0 W/m2 CLR
00:59 4.4 °F -1.3 °F 1004.3 in WNW 14.8 mph 14.8 mph 66 % 0.0 in 0.0 W/m2 CLR
01:04 4.4 °F -1.6 °F 1004.3 in WNW 16.7 mph 16.7 mph 65 % 0.0 in 0.0 W/m2 CLR
01:09 4.4 °F -1.8 °F 1004.6 in NW 18.5 mph 18.5 mph 64 % 0.0 in 0.0 W/m2 CLR
01:14 3.9 °F -2.3 °F 1004.6 in WNW 18.5 mph 18.5 mph 64 % 0.0 in 0.0 W/m2 CLR
01:19 3.9 °F -2.3 °F 1004.6 in NW 18.5 mph 18.5 mph 64 % 0.0 in 0.0 W/m2 CLR
01:24 4.4 °F -2.0 °F 1004.6 in NW 14.8 mph 14.8 mph 63 % 0.0 in 0.0 W/m2 CLR
01:29 4.4 °F -2.0 °F 1004.6 in NW 18.5 mph 18.5 mph 63 % 0.0 in 0.0 W/m2 CLR
01:34 4.4 °F -2.0 °F 1004.6 in WNW 16.1 mph 16.1 mph 63 % 0.0 in 0.0 W/m2 CLR
01:39 5.0 °F -1.4 °F 1004.6 in NNW 14.8 mph 14.8 mph 63 % 0.0 in 0.0 W/m2 CLR
01:44 5.6 °F -0.9 °F 1004.6 in NW 18.5 mph 18.5 mph 63 % 0.0 in 0.0 W/m2 CLR
01:49 6.7 °F 0.3 °F 1004.6 in NW 20.9 mph 20.9 mph 64 % 0.0 in 0.0 W/m2 CLR
01:54 7.2 °F 0.7 °F 1005.0 in NW 24.1 mph 24.1 mph 63 % 0.0 in 0.0 W/m2 CLR
01:59 7.8 °F 1.4 °F 1005.0 in NNW 22.2 mph 22.2 mph 64 % 0.0 in 0.0 W/m2 CLR
02:04 7.8 °F 1.4 °F 1005.0 in NW 18.5 mph 18.5 mph 64 % 0.0 in 0.0 W/m2 CLR
02:09 7.2 °F 1.1 °F 1005.0 in NW 11.1 mph 11.1 mph 65 % 0.0 in 0.0 W/m2 CLR
02:14 7.2 °F 1.1 °F 1005.0 in NW 13.0 mph 13.0 mph 65 % 0.0 in 0.0 W/m2 CLR
02:19 6.7 °F 0.8 °F 1005.0 in NW 13.0 mph 13.0 mph 66 % 0.0 in 0.0 W/m2 CLR
02:24 6.1 °F 0.2 °F 1005.3 in NW 11.1 mph 11.1 mph 66 % 0.0 in 0.0 W/m2 CLR
02:29 6.1 °F 0.2 °F 1005.3 in NNW 11.1 mph 11.1 mph 66 % 0.0 in 0.0 W/m2 CLR
02:34 5.6 °F -0.3 °F 1005.3 in NW 13.0 mph 13.0 mph 66 % 0.0 in 0.0 W/m2 CLR
02:39 5.6 °F -0.1 °F 1005.6 in NW 18.5 mph 18.5 mph 67 % 0.0 in 0.0 W/m2 CLR
02:44 6.1 °F 0.4 °F 1005.6 in NW 18.5 mph 18.5 mph 67 % 0.0 in 0.0 W/m2 CLR
02:49 6.1 °F 0.8 °F 1005.6 in NNW 20.4 mph 20.4 mph 69 % 0.0 in 0.0 W/m2 CLR
02:54 6.7 °F 1.6 °F 1006.0 in North 20.4 mph 20.4 mph 70 % 0.0 in 0.0 W/m2 CLR
02:59 6.1 °F 1.2 °F 1006.0 in North 22.5 mph 22.5 mph 71 % 0.0 in 0.0 W/m2 CLR
03:04 6.1 °F 1.6 °F 1006.0 in North 22.2 mph 22.2 mph 73 % 0.0 in 0.0 W/m2 CLR
03:09 6.1 °F 1.8 °F 1006.3 in North 25.9 mph 25.9 mph 74 % 0.0 in 0.0 W/m2 CLR
03:14 6.1 °F 2.0 °F 1006.3 in North 20.4 mph 20.4 mph 75 % 0.0 in 0.0 W/m2 CLR
03:19 6.1 °F 2.2 °F 1006.3 in NNW 22.2 mph 22.2 mph 76 % 0.0 in 0.0 W/m2 CLR
03:24 5.6 °F 1.8 °F 1006.3 in NW 18.5 mph 18.5 mph 77 % 0.0 in 0.0 W/m2 CLR
03:29 5.6 °F 1.8 °F 1006.3 in NNW 14.8 mph 14.8 mph 77 % 0.0 in 0.0 W/m2 CLR
03:34 5.6 °F 2.0 °F 1006.3 in NW 14.8 mph 14.8 mph 78 % 0.0 in 0.0 W/m2 CLR
03:39 5.0 °F 1.7 °F 1006.3 in NW 9.3 mph 9.3 mph 79 % 0.0 in 0.0 W/m2 CLR
03:44 5.0 °F 1.7 °F 1006.3 in NW 11.3 mph 11.3 mph 79 % 0.0 in 0.0 W/m2 CLR
03:49 5.0 °F 1.7 °F 1006.3 in NW 11.1 mph 11.1 mph 79 % 0.0 in 0.0 W/m2 CLR
03:54 5.0 °F 1.8 °F 1006.7 in NW 9.7 mph 9.7 mph 80 % 0.0 in 0.0 W/m2 CLR
03:59 5.0 °F 1.8 °F 1006.7 in NW 16.7 mph 16.7 mph 80 % 0.0 in 0.0 W/m2 CLR
04:04 5.0 °F 1.7 °F 1006.7 in NNW 18.5 mph 18.5 mph 79 % 0.0 in 0.0 W/m2 CLR
04:09 5.0 °F 1.5 °F 1006.7 in NW 18.5 mph 18.5 mph 78 % 0.0 in 0.0 W/m2 CLR
04:14 5.0 °F 1.5 °F 1006.7 in NW 20.4 mph 20.4 mph 78 % 0.0 in 0.0 W/m2 CLR
04:19 5.0 °F 1.5 °F 1006.7 in NNW 13.0 mph 13.0 mph 78 % 0.0 in 0.0 W/m2 CLR
04:24 5.0 °F 1.5 °F 1006.7 in NW 13.0 mph 13.0 mph 78 % 0.0 in 0.0 W/m2 CLR
04:29 5.0 °F 1.7 °F 1006.7 in NW 13.0 mph 13.0 mph 79 % 0.0 in 0.0 W/m2 CLR
04:34 4.4 °F 1.1 °F 1006.7 in WNW 11.1 mph 11.1 mph 79 % 0.0 in 0.0 W/m2 CLR
04:39 4.4 °F 1.1 °F 1006.7 in Calm     79 % 0.0 in 0.0 W/m2 CLR
04:44 4.4 °F 1.1 °F 1007.0 in Calm     79 % 0.0 in 0.0 W/m2 CLR
04:49 3.9 °F 0.8 °F 1007.0 in Calm     80 % 0.0 in 0.0 W/m2 CLR
04:54 3.9 °F 0.9 °F 1007.0 in Calm     81 % 0.0 in 0.0 W/m2 CLR
04:59 3.9 °F 1.1 °F 1007.0 in Calm     82 % 0.0 in 0.0 W/m2 CLR
05:04 3.9 °F 1.1 °F 1007.0 in Calm     82 % 0.0 in 0.0 W/m2 CLR
05:09 3.9 °F 1.1 °F 1007.0 in Calm     82 % 0.0 in 0.0 W/m2 CLR
05:14 4.4 °F 1.6 °F 1007.0 in Calm     82 % 0.0 in 0.0 W/m2 CLR
05:19 5.0 °F 2.2 °F 1007.3 in NW 13.0 mph 13.0 mph 82 % 0.0 in 0.0 W/m2 CLR
05:24 5.0 °F 2.2 °F 1007.3 in NW 9.7 mph 9.7 mph 82 % 0.0 in 0.0 W/m2 CLR
05:29 5.0 °F 2.2 °F 1007.3 in Calm     82 % 0.0 in 0.0 W/m2 CLR
05:34 5.0 °F 2.0 °F 1007.3 in NW 14.8 mph 14.8 mph 81 % 0.0 in 0.0 W/m2 CLR
05:39 4.4 °F 1.3 °F 1007.3 in NW 13.0 mph 13.0 mph 80 % 0.0 in 0.0 W/m2 CLR
05:45 4.4 °F 1.3 °F 1007.3 in NW 13.0 mph 13.0 mph 80 % 0.0 in 0.0 W/m2 CLR
05:50 4.4 °F 1.4 °F 1007.7 in NW 14.8 mph 14.8 mph 81 % 0.0 in 0.0 W/m2 CLR
05:55 4.4 °F 1.4 °F 1007.7 in NW 14.8 mph 14.8 mph 81 % 0.0 in 0.0 W/m2 CLR
06:00 5.0 °F 2.0 °F 1007.7 in NW 14.8 mph 14.8 mph 81 % 0.0 in 0.0 W/m2 CLR
06:05 4.4 °F 1.4 °F 1007.7 in WNW 11.3 mph 11.3 mph 81 % 0.0 in 0.0 W/m2 CLR
06:10 4.4 °F 1.4 °F 1007.7 in WNW 13.0 mph 13.0 mph 81 % 0.0 in 0.0 W/m2 CLR
06:15 4.4 °F 1.6 °F 1008.0 in WNW 16.7 mph 16.7 mph 82 % 0.0 in 0.0 W/m2 CLR
06:20 3.9 °F 1.1 °F 1008.0 in WNW 14.5 mph 14.5 mph 82 % 0.0 in 0.0 W/m2 CLR
06:25 3.9 °F 1.1 °F 1008.0 in WNW 13.0 mph 13.0 mph 82 % 0.0 in 0.0 W/m2 CLR
06:30 3.9 °F 1.1 °F 1008.0 in WNW 13.0 mph 13.0 mph 82 % 0.0 in 0.0 W/m2 CLR
06:35 3.3 °F 0.7 °F 1008.0 in WNW 13.0 mph 13.0 mph 83 % 0.0 in 0.0 W/m2 CLR
06:40 3.3 °F 0.7 °F 1008.4 in WNW 13.0 mph 13.0 mph 83 % 0.0 in 0.0 W/m2 CLR
06:45 3.3 °F 0.7 °F 1008.4 in NW 14.8 mph 14.8 mph 83 % 0.0 in 0.0 W/m2 CLR
06:50 3.3 °F 0.7 °F 1008.4 in WNW 14.8 mph 14.8 mph 83 % 0.0 in 0.0 W/m2 CLR
06:55 3.3 °F 0.6 °F 1008.4 in NW 17.7 mph 17.7 mph 82 % 0.0 in 0.0 W/m2 CLR
07:00 3.3 °F 0.4 °F 1008.7 in NW 14.8 mph 14.8 mph 81 % 0.0 in 0.0 W/m2 CLR
07:05 2.8 °F -0.3 °F 1008.7 in NW 14.8 mph 14.8 mph 80 % 0.0 in 0.0 W/m2 CLR
07:10 2.8 °F -0.3 °F 1009.0 in NW 14.8 mph 14.8 mph 80 % 0.0 in 0.0 W/m2 CLR
07:15 3.3 °F 0.2 °F 1009.0 in NW 16.7 mph 16.7 mph 80 % 0.0 in 0.0 W/m2 OVC
07:20 3.3 °F 0.1 °F 1009.0 in WNW 18.5 mph 18.5 mph 79 % 0.0 in 0.0 W/m2 OVC
07:25 3.9 °F 0.6 °F 1009.4 in NW 18.5 mph 18.5 mph 79 % 0.0 in 5.0 W/m2 OVC
07:30 3.9 °F 0.4 °F 1009.4 in NNW 18.5 mph 18.5 mph 78 % 0.0 in 7.0 W/m2 BKN
07:35 4.4 °F 0.9 °F 1009.4 in NNW 18.5 mph 18.5 mph 78 % 0.0 in 9.0 W/m2 BKN
07:40 4.4 °F 0.9 °F 1009.4 in NW 20.4 mph 20.4 mph 78 % 0.0 in 11.0 W/m2 BKN
07:45 4.4 °F 0.8 °F 1009.4 in NNW 20.4 mph 20.4 mph 77 % 0.0 in 12.0 W/m2 BKN
07:50 4.4 °F 0.6 °F 1009.7 in NNW 16.7 mph 16.7 mph 76 % 0.0 in 16.0 W/m2 BKN
07:55 4.4 °F 0.6 °F 1009.7 in NW 24.1 mph 24.1 mph 76 % 0.0 in 18.0 W/m2 BKN
08:00 4.4 °F 0.4 °F 1010.0 in NW 18.5 mph 18.5 mph 75 % 0.0 in 18.0 W/m2 BKN
08:05 4.4 °F 0.4 °F 1010.0 in NW 18.5 mph 18.5 mph 75 % 0.0 in 44.0 W/m2 BKN
08:10 4.4 °F 0.2 °F 1010.0 in NW 24.1 mph 24.1 mph 74 % 0.0 in 60.0 W/m2 SCT
08:15 5.0 °F 0.6 °F 1010.0 in NNW 18.5 mph 18.5 mph 73 % 0.0 in 56.0 W/m2 SCT
08:20 5.0 °F 0.6 °F 1010.4 in NNW 18.5 mph 18.5 mph 73 % 0.0 in 90.0 W/m2 CLR
08:25 5.0 °F 0.4 °F 1010.4 in NNW 18.5 mph 18.5 mph 72 % 0.0 in 90.0 W/m2 FEW
08:30 5.0 °F 0.2 °F 1010.4 in NNW 19.3 mph 19.3 mph 71 % 0.0 in 123.0 W/m2 CLR
08:35 5.6 °F 0.7 °F 1010.7 in NNW 16.7 mph 16.7 mph 71 % 0.0 in 42.0 W/m2 CLR
08:40 5.6 °F 0.5 °F 1010.7 in NNW 16.7 mph 16.7 mph 70 % 0.0 in 30.0 W/m2 SCT
08:45 5.6 °F 0.3 °F 1010.7 in NW 20.4 mph 20.4 mph 69 % 0.0 in 176.0 W/m2 SCT
08:50 5.6 °F 0.3 °F 1011.1 in North 14.8 mph 14.8 mph 69 % 0.0 in 206.0 W/m2 FEW
08:55 5.6 °F 0.1 °F 1011.1 in WNW 18.5 mph 18.5 mph 68 % 0.0 in 225.0 W/m2 CLR
09:00 6.1 °F 0.7 °F 1011.4 in NW 29.6 mph 29.6 mph 68 % 0.0 in 243.0 W/m2 CLR
09:05 6.7 °F 0.9 °F 1011.4 in NW 19.3 mph 19.3 mph 67 % 0.0 in 260.0 W/m2 CLR
09:10 6.7 °F 0.8 °F 1011.4 in NW 20.4 mph 20.4 mph 66 % 0.0 in 278.0 W/m2 CLR
09:15 6.7 °F 0.8 °F 1011.7 in NW 22.2 mph 22.2 mph 66 % 0.0 in 294.0 W/m2 CLR
09:20 6.7 °F 0.6 °F 1011.7 in WNW 18.5 mph 18.5 mph 65 % 0.0 in 309.0 W/m2 CLR
09:25 7.2 °F 1.1 °F 1011.7 in WNW 20.4 mph 20.4 mph 65 % 0.0 in 325.0 W/m2 CLR
09:30 7.2 °F 1.3 °F 1011.7 in NW 24.1 mph 24.1 mph 66 % 0.0 in 343.0 W/m2 CLR
09:35 7.8 °F 1.8 °F 1012.1 in WNW 18.5 mph 18.5 mph 66 % 0.0 in 357.0 W/m2 CLR
09:40 7.8 °F 0.9 °F 1012.1 in WNW 24.1 mph 24.1 mph 62 % 0.0 in 373.0 W/m2 CLR
09:45 7.8 °F 1.6 °F 1012.1 in NNW 18.5 mph 18.5 mph 65 % 0.0 in 387.0 W/m2 CLR
09:50 7.8 °F 1.2 °F 1012.4 in NW 24.1 mph 24.1 mph 63 % 0.0 in 404.0 W/m2 CLR
09:55 8.3 °F 1.7 °F 1012.4 in NW 29.6 mph 29.6 mph 63 % 0.0 in 418.0 W/m2 CLR
10:00 8.3 °F 1.2 °F 1012.4 in North 31.5 mph 31.5 mph 61 % 0.0 in 432.0 W/m2 CLR
10:05 8.3 °F 1.4 °F 1012.8 in NNW 33.3 mph 33.3 mph 62 % 0.0 in 446.0 W/m2 CLR
10:10 8.9 °F 2.0 °F 1012.8 in North 29.0 mph 29.0 mph 62 % 0.0 in 459.0 W/m2 CLR
10:15 8.9 °F 1.8 °F 1012.8 in NNW 27.8 mph 27.8 mph 61 % 0.0 in 475.0 W/m2 CLR
10:20 8.9 °F 1.6 °F 1012.8 in NNW 33.3 mph 33.3 mph 60 % 0.0 in 489.0 W/m2 CLR
10:25 8.9 °F 1.6 °F 1012.8 in NW 31.5 mph 31.5 mph 60 % 0.0 in 499.0 W/m2 CLR
10:30 8.9 °F 1.1 °F 1012.8 in NNW 31.5 mph 31.5 mph 58 % 0.0 in 515.0 W/m2 CLR
10:35 9.4 °F 1.8 °F 1013.1 in NNW 33.3 mph 33.3 mph 59 % 0.0 in 527.0 W/m2 CLR
10:40 10.0 °F 2.3 °F 1013.1 in NNW 35.4 mph 35.4 mph 59 % 0.0 in 540.0 W/m2 CLR
10:45 10.0 °F 2.3 °F 1013.1 in NNW 33.3 mph 33.3 mph 59 % 0.0 in 552.0 W/m2 CLR
10:50 10.0 °F 2.3 °F 1013.1 in NNW 31.5 mph 31.5 mph 59 % 0.0 in 564.0 W/m2 CLR
10:55 10.6 °F 2.1 °F 1013.1 in North 33.8 mph 33.8 mph 56 % 0.0 in 578.0 W/m2 CLR
11:00 10.6 °F 2.4 °F 1013.1 in NNW 31.5 mph 31.5 mph 57 % 0.0 in 587.0 W/m2 CLR
11:05 10.6 °F 1.9 °F 1013.1 in NNW 35.2 mph 35.2 mph 55 % 0.0 in 598.0 W/m2 CLR
11:10 11.1 °F 2.9 °F 1013.1 in North 29.6 mph 29.6 mph 57 % 0.0 in 608.0 W/m2 CLR
11:15 11.1 °F 2.9 °F 1013.1 in NW 27.8 mph 27.8 mph 57 % 0.0 in 619.0 W/m2 CLR
11:20 11.1 °F 2.7 °F 1013.1 in NNW 24.1 mph 24.1 mph 56 % 0.0 in 628.0 W/m2 CLR
11:25 11.7 °F 3.2 °F 1013.1 in NW 35.2 mph 35.2 mph 56 % 0.0 in 636.0 W/m2 CLR
11:30 11.1 °F 2.4 °F 1013.4 in NNW 32.2 mph 32.2 mph 55 % 0.0 in 645.0 W/m2 CLR
11:35 11.7 °F 2.9 °F 1013.4 in North 31.5 mph 31.5 mph 55 % 0.0 in 652.0 W/m2 CLR
11:36 11.7 °F 2.9 °F 1013.4 in NNW 31.5 mph 31.5 mph 55 % 0.0 in 654.0 W/m2 CLR
11:41 11.7 °F 2.9 °F 1013.4 in North 33.3 mph 33.3 mph 55 % 0.0 in 663.0 W/m2 CLR
11:46 11.7 °F 3.2 °F 1013.4 in NW 32.2 mph 32.2 mph 56 % 0.0 in 670.0 W/m2 CLR
11:51 11.7 °F 2.7 °F 1013.4 in NNW 31.5 mph 31.5 mph 54 % 0.0 in 680.0 W/m2 CLR
11:56 11.7 °F 2.9 °F 1013.4 in NNW 29.6 mph 29.6 mph 55 % 0.0 in 693.0 W/m2 CLR
12:01 12.2 °F 3.4 °F 1013.4 in NNW 33.3 mph 33.3 mph 55 % 0.0 in 696.0 W/m2 CLR
12:06 11.7 °F 2.9 °F 1013.4 in NW 31.5 mph 31.5 mph 55 % 0.0 in 700.0 W/m2 CLR
12:11 12.2 °F 2.9 °F 1013.4 in NW 31.5 mph 31.5 mph 53 % 0.0 in 705.0 W/m2 CLR
12:16 12.2 °F 2.9 °F 1013.4 in NNW 18.5 mph 18.5 mph 53 % 0.0 in 708.0 W/m2 CLR
12:21 12.2 °F 2.7 °F 1013.4 in NW 31.5 mph 31.5 mph 52 % 0.0 in 724.0 W/m2 CLR
12:26 12.2 °F 2.4 °F 1013.4 in NNW 25.9 mph 25.9 mph 51 % 0.0 in 724.0 W/m2 CLR
12:31 12.8 °F 2.9 °F 1013.4 in North 40.7 mph 40.7 mph 51 % 0.0 in 719.0 W/m2 CLR
12:36 12.8 °F 2.6 °F 1013.1 in North 37.0 mph 37.0 mph 50 % 0.0 in 726.0 W/m2 CLR
12:41 12.8 °F 2.6 °F 1013.1 in NNE 38.9 mph 38.9 mph 50 % 0.0 in 728.0 W/m2 CLR
12:46 12.8 °F 2.3 °F 1013.1 in North 31.5 mph 31.5 mph 49 % 0.0 in 731.0 W/m2 CLR
12:51 12.2 °F 2.4 °F 1013.1 in NNW 29.6 mph 29.6 mph 51 % 0.0 in 729.0 W/m2 CLR
12:56 12.8 °F 2.6 °F 1013.1 in North 37.0 mph 37.0 mph 50 % 0.0 in 726.0 W/m2 CLR
13:01 12.8 °F 2.3 °F 1013.4 in North 31.5 mph 31.5 mph 49 % 0.0 in 728.0 W/m2 CLR
13:06 12.8 °F 2.3 °F 1013.1 in NNW 33.3 mph 33.3 mph 49 % 0.0 in 708.0 W/m2 CLR
13:11 13.3 °F 2.2 °F 1013.4 in NNW 42.6 mph 42.6 mph 47 % 0.0 in 731.0 W/m2 CLR
13:16 12.8 °F 1.7 °F 1013.4 in NNE 25.9 mph 25.9 mph 47 % 0.0 in 737.0 W/m2 CLR
13:21 12.8 °F 2.1 °F 1013.1 in North 37.0 mph 37.0 mph 48 % 0.0 in 738.0 W/m2 CLR
13:26 12.8 °F 2.3 °F 1013.1 in North 33.3 mph 33.3 mph 49 % 0.0 in 737.0 W/m2 CLR
13:31 12.8 °F 2.1 °F 1013.1 in NNW 31.5 mph 31.5 mph 48 % 0.0 in 738.0 W/m2 CLR
13:36 13.3 °F 2.6 °F 1012.8 in North 29.6 mph 29.6 mph 48 % 0.0 in 729.0 W/m2 CLR
13:41 12.8 °F 2.1 °F 1012.8 in NNW 29.6 mph 29.6 mph 48 % 0.0 in 726.0 W/m2 CLR
13:46 12.8 °F 1.7 °F 1012.8 in NNE 20.4 mph 20.4 mph 47 % 0.0 in 729.0 W/m2 CLR
13:51 12.8 °F 1.7 °F 1012.8 in North 31.5 mph 31.5 mph 47 % 0.0 in 740.0 W/m2 CLR
13:56 12.8 °F 1.7 °F 1012.8 in North 29.0 mph 29.0 mph 47 % 0.0 in 682.0 W/m2 CLR
14:01 12.8 °F 1.7 °F 1012.8 in North 33.3 mph 33.3 mph 47 % 0.0 in 712.0 W/m2 CLR
14:06 13.3 °F 2.2 °F 1012.8 in NNW 20.4 mph 20.4 mph 47 % 0.0 in 705.0 W/m2 CLR
14:11 13.3 °F 1.9 °F 1012.8 in North 24.1 mph 24.1 mph 46 % 0.0 in 703.0 W/m2 CLR
14:16 13.9 °F 2.8 °F 1012.8 in NE 37.0 mph 37.0 mph 47 % 0.0 in 703.0 W/m2 CLR
14:21 12.8 °F 2.1 °F 1012.8 in North 25.9 mph 25.9 mph 48 % 0.0 in 698.0 W/m2 CLR
14:26 12.8 °F 1.7 °F 1012.8 in North 22.2 mph 22.2 mph 47 % 0.0 in 693.0 W/m2 CLR
14:31 13.3 °F 1.9 °F 1012.4 in North 22.2 mph 22.2 mph 46 % 0.0 in 686.0 W/m2 CLR
14:36 13.3 °F 1.3 °F 1012.4 in North 33.3 mph 33.3 mph 44 % 0.0 in 680.0 W/m2 CLR
14:41 13.3 °F 1.6 °F 1012.4 in NNW 29.0 mph 29.0 mph 45 % 0.0 in 671.0 W/m2 CLR
14:46 13.3 °F 1.3 °F 1012.8 in NNW 31.5 mph 31.5 mph 44 % 0.0 in 666.0 W/m2 CLR
14:51 13.3 °F 1.3 °F 1012.4 in NW 20.9 mph 20.9 mph 44 % 0.0 in 657.0 W/m2 CLR
14:56 13.9 °F 1.8 °F 1012.4 in NNW 22.2 mph 22.2 mph 44 % 0.0 in 647.0 W/m2 CLR
15:01 13.3 °F 1.6 °F 1012.4 in NW 22.2 mph 22.2 mph 45 % 0.0 in 638.0 W/m2 CLR
15:06 13.9 °F 1.5 °F 1012.4 in North 18.5 mph 18.5 mph 43 % 0.0 in 628.0 W/m2 CLR
15:11 13.9 °F 1.8 °F 1012.4 in North 31.5 mph 31.5 mph 44 % 0.0 in 621.0 W/m2 CLR
15:16 13.9 °F 1.5 °F 1012.8 in North 18.5 mph 18.5 mph 43 % 0.0 in 608.0 W/m2 CLR
15:21 13.9 °F 1.8 °F 1012.8 in NNW 16.7 mph 16.7 mph 44 % 0.0 in 598.0 W/m2 CLR
15:26 13.3 °F 1.3 °F 1013.1 in North 18.5 mph 18.5 mph 44 % 0.0 in 589.0 W/m2 CLR
15:31 13.3 °F 0.7 °F 1013.1 in WNW 22.2 mph 22.2 mph 42 % 0.0 in 580.0 W/m2 CLR
15:36 13.9 °F 1.2 °F 1012.8 in NNW 18.5 mph 18.5 mph 42 % 0.0 in 568.0 W/m2 CLR
15:41 13.9 °F 1.2 °F 1012.8 in NW 27.8 mph 27.8 mph 42 % 0.0 in 559.0 W/m2 CLR
15:46 13.9 °F 0.8 °F 1012.8 in NNW 18.5 mph 18.5 mph 41 % 0.0 in 545.0 W/m2 CLR
15:51 13.9 °F 1.5 °F 1012.4 in North 20.4 mph 20.4 mph 43 % 0.0 in 536.0 W/m2 CLR
15:56 13.9 °F 0.5 °F 1012.4 in NNW 25.9 mph 25.9 mph 40 % 0.0 in 524.0 W/m2 CLR
16:01 13.9 °F 1.2 °F 1012.4 in North 18.5 mph 18.5 mph 42 % 0.0 in 508.0 W/m2 CLR
16:06 13.9 °F 0.5 °F 1012.4 in North 22.2 mph 22.2 mph 40 % 0.0 in 503.0 W/m2 CLR
16:11 13.9 °F 0.2 °F 1012.4 in NW 11.3 mph 11.3 mph 39 % 0.0 in 487.0 W/m2 CLR
16:16 13.9 °F 1.2 °F 1012.4 in NNW 16.7 mph 16.7 mph 42 % 0.0 in 478.0 W/m2 CLR
16:21 13.9 °F 0.2 °F 1012.8 in NNW 19.3 mph 19.3 mph 39 % 0.0 in 441.0 W/m2 CLR
16:26 13.9 °F 0.2 °F 1012.8 in North 16.7 mph 16.7 mph 39 % 0.0 in 434.0 W/m2 CLR
16:31 13.9 °F 0.8 °F 1012.8 in NNW 24.1 mph 24.1 mph 41 % 0.0 in 408.0 W/m2 CLR
16:36 13.9 °F 0.2 °F 1012.8 in NNE 19.3 mph 19.3 mph 39 % 0.0 in 413.0 W/m2 CLR
16:41 13.9 °F 0.5 °F 1012.4 in NNW 20.9 mph 20.9 mph 40 % 0.0 in 401.0 W/m2 CLR
16:46 13.9 °F 0.2 °F 1012.8 in NNE 16.1 mph 16.1 mph 39 % 0.0 in 376.0 W/m2 CLR
16:51 13.9 °F 0.2 °F 1012.8 in NNE 20.4 mph 20.4 mph 39 % 0.0 in 369.0 W/m2 CLR
16:56 13.9 °F 0.5 °F 1012.8 in North 18.5 mph 18.5 mph 40 % 0.0 in 350.0 W/m2 CLR
17:01 13.9 °F 0.5 °F 1012.8 in North 13.0 mph 13.0 mph 40 % 0.0 in 329.0 W/m2 CLR
17:06 13.3 °F 0.0 °F 1012.8 in North 14.5 mph 14.5 mph 40 % 0.0 in 320.0 W/m2 CLR
17:11 13.3 °F 0.3 °F 1012.8 in NE 16.7 mph 16.7 mph 41 % 0.0 in 302.0 W/m2 CLR
17:16 13.3 °F 0.3 °F 1012.8 in NNE 14.8 mph 14.8 mph 41 % 0.0 in 239.0 W/m2 CLR
17:21 13.3 °F 0.3 °F 1012.8 in NW 13.0 mph 13.0 mph 41 % 0.0 in 248.0 W/m2 CLR
17:26 13.3 °F 0.3 °F 1012.8 in North 16.7 mph 16.7 mph 41 % 0.0 in 230.0 W/m2 CLR
17:31 12.8 °F -0.2 °F 1012.8 in North 7.4 mph   41 % 0.0 in 185.0 W/m2 CLR
17:36 12.8 °F -0.5 °F 1012.8 in NNW 13.0 mph 13.0 mph 40 % 0.0 in 153.0 W/m2 CLR
17:41 12.8 °F -0.2 °F 1013.1 in Calm     41 % 0.0 in 190.0 W/m2 CLR
17:46 12.8 °F -0.5 °F 1013.1 in NNE 11.3 mph 11.3 mph 40 % 0.0 in 116.0 W/m2 CLR
17:51 12.2 °F -0.3 °F 1013.1 in NNE 1.9 mph 1.9 mph 42 % 0.0 in 146.0 W/m2 CLR
17:56 12.2 °F -0.7 °F 1013.1 in NNE 5.6 mph   41 % 0.0 in 118.0 W/m2 CLR
18:01 12.2 °F -0.3 °F 1013.1 in NNE 13.0 mph 13.0 mph 42 % 0.0 in 93.0 W/m2 CLR
18:06 11.7 °F -0.8 °F 1013.1 in NNE 1.9 mph   42 % 0.0 in 69.0 W/m2 FEW
18:11 11.7 °F -0.8 °F 1013.1 in Calm     42 % 0.0 in 54.0 W/m2 SCT
18:16 11.7 °F -0.8 °F 1013.1 in Calm     42 % 0.0 in 39.0 W/m2 BKN
18:21 11.1 °F -1.3 °F 1013.1 in Calm     42 % 0.0 in 32.0 W/m2 BKN
18:26 11.1 °F -0.1 °F 1013.1 in Calm     46 % 0.0 in 26.0 W/m2 BKN
18:31 10.6 °F -1.2 °F 1013.1 in Calm     44 % 0.0 in 23.0 W/m2 BKN
18:36 10.0 °F -1.7 °F 1013.1 in Calm     44 % 0.0 in 18.0 W/m2 BKN
18:41 9.4 °F -2.2 °F 1013.1 in Calm     44 % 0.0 in 14.0 W/m2 BKN
18:46 8.9 °F -2.1 °F 1013.1 in Calm     46 % 0.0 in 11.0 W/m2 BKN
18:51 8.3 °F -2.3 °F 1013.1 in Calm     47 % 0.0 in 5.0 W/m2 OVC
18:56 7.8 °F -2.6 °F 1013.1 in Calm     48 % 0.0 in 0.0 W/m2 OVC
19:01 7.8 °F -2.6 °F 1013.1 in Calm     48 % 0.0 in 0.0 W/m2 CLR
19:06 7.2 °F -2.5 °F 1013.1 in Calm     50 % 0.0 in 0.0 W/m2 CLR
19:11 6.7 °F -2.5 °F 1013.4 in Calm     52 % 0.0 in 0.0 W/m2 CLR
19:17 6.7 °F -2.8 °F 1013.4 in Calm     51 % 0.0 in 0.0 W/m2 CLR
19:22 6.7 °F -1.7 °F 1013.4 in Calm     55 % 0.0 in 0.0 W/m2 CLR
19:27 6.7 °F -1.7 °F 1013.4 in Calm     55 % 0.0 in 0.0 W/m2 CLR
19:32 6.7 °F -1.0 °F 1013.4 in Calm     58 % 0.0 in 0.0 W/m2 CLR
19:37 6.7 °F -0.3 °F 1013.4 in Calm     61 % 0.0 in 0.0 W/m2 CLR
19:42 6.7 °F -0.1 °F 1013.8 in Calm     62 % 0.0 in 0.0 W/m2 CLR
19:47 6.1 °F -0.4 °F 1013.8 in Calm     63 % 0.0 in 0.0 W/m2 CLR
19:52 6.1 °F -0.2 °F 1013.8 in Calm     64 % 0.0 in 0.0 W/m2 CLR
19:57 6.1 °F 0.2 °F 1013.8 in Calm     66 % 0.0 in 0.0 W/m2 CLR
20:02 5.6 °F -0.1 °F 1013.8 in Calm     67 % 0.0 in 0.0 W/m2 CLR
20:07 5.6 °F 0.3 °F 1013.8 in Calm     69 % 0.0 in 0.0 W/m2 CLR
20:12 5.6 °F 0.3 °F 1013.8 in Calm     69 % 0.0 in 0.0 W/m2 CLR
20:17 5.6 °F 0.7 °F 1013.8 in Calm     71 % 0.0 in 0.0 W/m2 CLR
20:22 5.6 °F 0.7 °F 1014.1 in Calm     71 % 0.0 in 0.0 W/m2 CLR
20:27 5.6 °F 0.5 °F 1014.1 in Calm     70 % 0.0 in 0.0 W/m2 CLR
20:32 5.6 °F 0.7 °F 1013.8 in Calm     71 % 0.0 in 0.0 W/m2 CLR
20:37 5.6 °F 0.9 °F 1013.8 in Calm     72 % 0.0 in 0.0 W/m2 CLR
20:42 5.6 °F 1.1 °F 1014.1 in Calm     73 % 0.0 in 0.0 W/m2 CLR
20:47 5.6 °F 1.1 °F 1014.1 in Calm     73 % 0.0 in 0.0 W/m2 CLR
20:52 5.6 °F 0.9 °F 1014.1 in Calm     72 % 0.0 in 0.0 W/m2 CLR
20:57 5.6 °F 1.3 °F 1014.1 in Calm     74 % 0.0 in 0.0 W/m2 CLR
21:02 5.6 °F 1.3 °F 1014.1 in Calm     74 % 0.0 in 0.0 W/m2 CLR
21:07 5.6 °F 1.1 °F 1014.1 in Calm     73 % 0.0 in 0.0 W/m2 CLR
21:12 5.6 °F 1.1 °F 1014.1 in Calm     73 % 0.0 in 0.0 W/m2 CLR
21:17 5.6 °F 1.1 °F 1014.1 in Calm     73 % 0.0 in 0.0 W/m2 CLR
21:22 5.6 °F 1.4 °F 1013.8 in Calm     75 % 0.0 in 0.0 W/m2 CLR
21:27 5.6 °F 1.4 °F 1013.8 in Calm     75 % 0.0 in 0.0 W/m2 CLR
21:32 5.0 °F 1.1 °F 1013.8 in Calm     76 % 0.0 in 0.0 W/m2 CLR
21:37 5.0 °F 0.9 °F 1013.8 in Calm     75 % 0.0 in 0.0 W/m2 CLR
21:42 5.0 °F 0.7 °F 1013.8 in Calm     74 % 0.0 in 0.0 W/m2 CLR
21:47 5.0 °F 0.9 °F 1013.8 in Calm     75 % 0.0 in 0.0 W/m2 CLR
21:52 4.4 °F 0.6 °F 1014.1 in Calm     76 % 0.0 in 0.0 W/m2 CLR
21:57 4.4 °F 0.6 °F 1014.1 in Calm     76 % 0.0 in 0.0 W/m2 CLR
22:02 4.4 °F 0.6 °F 1014.1 in Calm     76 % 0.0 in 0.0 W/m2 CLR
22:07 4.4 °F 0.4 °F 1014.1 in Calm     75 % 0.0 in 0.0 W/m2 CLR
22:12 4.4 °F 0.6 °F 1013.8 in Calm     76 % 0.0 in 0.0 W/m2 CLR
22:17 4.4 °F 0.6 °F 1014.1 in Calm     76 % 0.0 in 0.0 W/m2 CLR
22:22 4.4 °F 0.6 °F 1014.1 in Calm     76 % 0.0 in 0.0 W/m2 CLR
22:27 4.4 °F 0.8 °F 1013.8 in Calm     77 % 0.0 in 0.0 W/m2 CLR
22:32 4.4 °F 0.6 °F 1013.8 in Calm     76 % 0.0 in 0.0 W/m2 CLR
22:37 3.9 °F 0.1 °F 1014.1 in Calm     76 % 0.0 in 0.0 W/m2 CLR
22:42 3.9 °F 0.1 °F 1013.8 in Calm     76 % 0.0 in 0.0 W/m2 CLR
22:47 3.9 °F 0.1 °F 1013.8 in Calm     76 % 0.0 in 0.0 W/m2 CLR
22:52 3.9 °F 0.1 °F 1013.8 in Calm     76 % 0.0 in 0.0 W/m2 CLR
22:57 3.3 °F -0.5 °F 1013.8 in Calm     76 % 0.0 in 0.0 W/m2 CLR
23:02 3.3 °F -0.2 °F 1013.8 in Calm     78 % 0.0 in 0.0 W/m2 CLR
23:07 3.9 °F 0.6 °F 1013.8 in Calm     79 % 0.0 in 0.0 W/m2 CLR
23:12 3.9 °F 0.8 °F 1014.1 in Calm     80 % 0.0 in 0.0 W/m2 CLR
23:17 3.3 °F 0.4 °F 1014.1 in Calm     81 % 0.0 in 0.0 W/m2 CLR
23:22 3.3 °F 0.4 °F 1014.1 in Calm     81 % 0.0 in 0.0 W/m2 CLR
23:27 3.3 °F 0.6 °F 1014.1 in Calm     82 % 0.0 in 0.0 W/m2 CLR
23:32 3.3 °F 0.6 °F 1014.1 in Calm     82 % 0.0 in 0.0 W/m2 CLR
23:37 3.3 °F 0.4 °F 1014.1 in Calm     81 % 0.0 in 0.0 W/m2 CLR
23:42 3.3 °F 0.4 °F 1013.8 in Calm     81 % 0.0 in 0.0 W/m2 CLR
23:47 3.3 °F 0.6 °F 1013.8 in Calm     82 % 0.0 in 0.0 W/m2 CLR
23:52 3.3 °F 0.7 °F 1013.8 in Calm     83 % 0.0 in 0.0 W/m2 CLR
23:57 2.8 °F 0.2 °F 1013.4 in Calm     83 % 0.0 in 0.0 W/m2 CLR
Lo Temps de Massalio
Compliments of Weather Underground - 1.25 mb